Time;durP1;ratioP1;P1;durP2;ratioP2;P2;SDS_P1;SDS_P2;PMS_P1;PMS_P2;Temp;Humidity;BMP_temperature;BMP_pressure;BME280_temperature;BME280_humidity;BME280_pressure;Samples;Min_cycle;Max_cycle;Signal;HPM_P1;HPM_P2
2022/09/13 00:02:12;;;;;;;0.00;0.00;;;18.80;99.90;;;;;;4989439;28;20054;-70
2022/09/13 00:04:38;;;;;;;0.00;0.00;;;18.80;99.90;;;;;;4990965;28;20096;-70
2022/09/13 00:07:03;;;;;;;0.10;0.10;;;18.80;99.90;;;;;;4991483;28;20567;-71
2022/09/13 00:09:30;;;;;;;0.10;0.10;;;18.80;99.90;;;;;;4991477;28;20072;-71
2022/09/13 00:11:55;;;;;;;0.05;0.05;;;18.80;99.90;;;;;;4990771;28;20494;-71
2022/09/13 00:14:21;;;;;;;0.10;0.10;;;18.80;99.90;;;;;;4989599;28;20530;-71
2022/09/13 00:16:46;;;;;;;0.10;0.10;;;18.80;99.90;;;;;;4994595;28;20488;-71
2022/09/13 00:19:12;;;;;;;1.30;0.35;;;18.80;99.90;;;;;;4990245;28;20043;-71
2022/09/13 00:21:37;;;;;;;0.10;0.10;;;18.90;99.90;;;;;;4991277;28;20096;-71
2022/09/13 00:24:04;;;;;;;0.10;0.10;;;18.80;99.90;;;;;;4989165;28;20065;-71
2022/09/13 00:26:29;;;;;;;0.03;0.03;;;18.80;99.90;;;;;;5007108;28;20041;-71
2022/09/13 00:28:57;;;;;;;0.05;0.05;;;18.80;99.90;;;;;;5011148;28;20200;-71
2022/09/13 00:31:25;;;;;;;0.13;0.13;;;18.70;99.90;;;;;;5010118;28;20428;-71
2022/09/13 00:33:50;;;;;;;1.45;0.95;;;18.70;99.90;;;;;;5008502;28;20418;-71
2022/09/13 00:36:16;;;;;;;0.45;0.22;;;18.70;99.90;;;;;;5009894;28;20045;-71
2022/09/13 00:38:43;;;;;;;0.00;0.00;;;18.70;99.90;;;;;;5010259;28;20049;-71
2022/09/13 00:41:14;;;;;;;0.10;0.10;;;18.70;99.90;;;;;;5004367;28;20049;-71
2022/09/13 00:44:00;;;;;;;0.70;0.70;;;18.70;99.90;;;;;;4991117;28;20442;-71
2022/09/13 00:46:48;;;;;;;0.10;0.10;;;18.80;99.90;;;;;;5008730;28;20524;-71
2022/09/13 00:49:17;;;;;;;0.30;0.30;;;18.70;99.90;;;;;;5009991;28;20438;-71
2022/09/13 00:51:49;;;;;;;0.10;0.10;;;18.70;99.90;;;;;;5007975;28;20038;-71
2022/09/13 00:54:20;;;;;;;4.30;0.80;;;18.70;99.90;;;;;;5009141;28;20347;-71
2022/09/13 00:56:54;;;;;;;0.00;0.00;;;18.70;99.90;;;;;;5006099;28;20054;-71
2022/09/13 00:59:34;;;;;;;0.00;0.00;;;18.70;99.90;;;;;;4988833;28;20500;-71
2022/09/13 01:02:02;;;;;;;0.20;0.20;;;18.70;99.90;;;;;;4991682;28;20054;-71
2022/09/13 01:04:30;;;;;;;0.00;0.00;;;18.70;99.90;;;;;;4989982;28;20473;-71
2022/09/13 01:07:01;;;;;;;0.10;0.10;;;18.70;99.90;;;;;;4989149;28;20061;-71
2022/09/13 01:09:28;;;;;;;0.00;0.00;;;18.60;99.90;;;;;;4991159;28;20042;-71
2022/09/13 01:12:25;;;;;;;0.00;0.00;;;18.70;99.90;;;;;;4989891;28;20050;-71
2022/09/13 01:14:52;;;;;;;0.00;0.00;;;18.70;99.90;;;;;;4987378;28;20117;-71
2022/09/13 01:17:18;;;;;;;0.00;0.00;;;18.60;99.90;;;;;;4990520;28;20054;-71
2022/09/13 01:19:43;;;;;;;0.00;0.00;;;18.70;99.90;;;;;;4989449;28;20050;-71
2022/09/13 01:22:22;;;;;;;0.80;0.20;;;18.70;99.90;;;;;;4989476;28;20452;-71
2022/09/13 01:25:09;;;;;;;0.00;0.00;;;18.70;99.90;;;;;;4990980;28;20058;-71
2022/09/13 01:27:34;;;;;;;0.00;0.00;;;18.70;99.90;;;;;;5009503;28;20042;-71
2022/09/13 01:30:23;;;;;;;0.00;0.00;;;18.70;99.90;;;;;;5009081;28;20104;-71
2022/09/13 01:33:23;;;;;;;1.38;0.90;;;18.70;99.90;;;;;;5008015;28;20053;-71
2022/09/13 01:36:01;;;;;;;0.55;0.20;;;18.60;99.90;;;;;;5010046;28;20042;-71
2022/09/13 01:39:04;;;;;;;0.38;0.38;;;18.60;99.90;;;;;;5013595;28;20436;-71
2022/09/13 01:41:58;;;;;;;0.00;0.00;;;18.60;99.90;;;;;;5000324;28;20049;-71
2022/09/13 01:44:35;;;;;;;0.10;0.10;;;18.60;99.90;;;;;;4993968;28;20437;-71
2022/09/13 01:47:37;;;;;;;0.10;0.10;;;18.60;99.90;;;;;;4993503;28;20065;-72
2022/09/13 01:50:12;;;;;;;0.20;0.20;;;18.60;99.90;;;;;;5012328;28;20060;-71
2022/09/13 01:52:43;;;;;;;0.00;0.00;;;18.60;99.90;;;;;;5010955;28;20049;-71
2022/09/13 01:55:28;;;;;;;0.20;0.20;;;18.60;99.90;;;;;;5012481;28;20124;-71
2022/09/13 01:58:21;;;;;;;0.10;0.10;;;18.50;99.90;;;;;;5010188;28;20057;-71
2022/09/13 02:01:08;;;;;;;27.55;0.85;;;18.50;99.90;;;;;;5013133;28;20057;-71
2022/09/13 02:03:43;;;;;;;0.20;0.20;;;18.50;99.90;;;;;;5005664;28;20061;-71
2022/09/13 02:06:18;;;;;;;0.52;0.17;;;18.50;99.90;;;;;;5012485;28;20053;-71
2022/09/13 02:08:53;;;;;;;0.45;0.32;;;18.50;99.90;;;;;;5007507;28;20057;-70
2022/09/13 02:11:21;;;;;;;0.20;0.20;;;18.60;99.90;;;;;;5011713;28;20058;-71
2022/09/13 02:14:00;;;;;;;0.00;0.00;;;18.60;99.90;;;;;;5002266;28;20084;-71
2022/09/13 02:16:31;;;;;;;0.00;0.00;;;18.60;99.90;;;;;;4990440;28;20129;-71
2022/09/13 02:19:07;;;;;;;0.00;0.00;;;18.70;99.90;;;;;;4992907;28;20042;-71
2022/09/13 02:21:38;;;;;;;0.47;0.30;;;18.60;99.90;;;;;;4992079;28;20088;-71
2022/09/13 02:24:11;;;;;;;10.05;0.80;;;18.50;99.90;;;;;;4991522;28;20510;-71
2022/09/13 02:26:39;;;;;;;0.00;0.00;;;18.40;99.90;;;;;;4991622;28;20088;-71
2022/09/13 02:29:11;;;;;;;0.00;0.00;;;18.40;99.90;;;;;;4992881;28;20038;-70
2022/09/13 02:31:46;;;;;;;0.00;0.00;;;18.40;99.90;;;;;;4990881;28;20070;-70
2022/09/13 02:34:21;;;;;;;0.00;0.00;;;18.30;99.90;;;;;;4992991;28;20046;-70
2022/09/13 02:36:48;;;;;;;0.00;0.00;;;18.30;99.90;;;;;;4993190;28;20046;-70
2022/09/13 02:39:21;;;;;;;0.08;0.08;;;18.20;99.90;;;;;;4989220;28;20050;-71
2022/09/13 02:42:15;;;;;;;0.10;0.10;;;18.20;99.90;;;;;;5006071;28;20046;-71
2022/09/13 02:44:48;;;;;;;0.00;0.00;;;18.30;99.90;;;;;;5011295;28;20057;-72
2022/09/13 02:47:33;;;;;;;0.00;0.00;;;18.20;99.90;;;;;;5003646;28;20041;-72
2022/09/13 02:50:01;;;;;;;0.00;0.00;;;18.20;99.90;;;;;;5012410;28;20061;-72
2022/09/13 02:52:53;;;;;;;0.00;0.00;;;18.10;99.90;;;;;;5009182;28;20042;-72
2022/09/13 02:55:47;;;;;;;0.30;0.20;;;18.20;99.90;;;;;;5010482;28;20431;-71
2022/09/13 02:58:27;;;;;;;0.00;0.00;;;18.10;99.90;;;;;;4981328;28;20070;-71
2022/09/13 03:00:54;;;;;;;0.00;0.00;;;18.10;99.90;;;;;;4995830;28;20065;-71
2022/09/13 03:03:20;;;;;;;0.10;0.10;;;18.10;99.90;;;;;;5009908;28;20176;-72
2022/09/13 03:05:45;;;;;;;0.00;0.00;;;18.10;99.90;;;;;;5010861;28;20137;-71
2022/09/13 03:08:15;;;;;;;0.00;0.00;;;18.10;99.90;;;;;;5002060;28;20059;-72
2022/09/13 03:10:58;;;;;;;0.00;0.00;;;18.10;99.90;;;;;;4991042;28;20402;-71
2022/09/13 03:13:50;;;;;;;0.00;0.00;;;18.10;99.90;;;;;;4991426;28;20613;-71
2022/09/13 03:16:35;;;;;;;0.08;0.08;;;18.10;99.90;;;;;;4992136;28;20487;-71
2022/09/13 03:19:35;;;;;;;0.00;0.00;;;18.10;99.90;;;;;;4992081;28;20052;-71
2022/09/13 03:22:39;;;;;;;0.00;0.00;;;18.10;99.90;;;;;;4990835;28;20569;-71
2022/09/13 03:25:31;;;;;;;0.35;0.30;;;18.10;99.90;;;;;;4975224;28;20055;-71
2022/09/13 03:28:06;;;;;;;0.00;0.00;;;18.10;99.90;;;;;;4991634;28;20070;-71
2022/09/13 03:30:35;;;;;;;0.00;0.00;;;18.10;99.90;;;;;;4992367;28;20049;-72
2022/09/13 03:33:19;;;;;;;0.00;0.00;;;18.10;99.90;;;;;;5004462;28;20077;-71
2022/09/13 03:36:03;;;;;;;0.00;0.00;;;18.10;99.90;;;;;;5011037;28;20042;-71
2022/09/13 03:38:41;;;;;;;0.03;0.03;;;18.10;99.90;;;;;;4998808;28;20054;-71
2022/09/13 03:41:20;;;;;;;0.00;0.00;;;18.10;99.90;;;;;;5006364;28;20437;-71
2022/09/13 03:44:01;;;;;;;0.22;0.22;;;18.00;99.90;;;;;;5010193;28;20072;-71
2022/09/13 03:46:33;;;;;;;0.00;0.00;;;18.00;99.90;;;;;;5008974;28;20470;-71
2022/09/13 03:49:06;;;;;;;0.00;0.00;;;18.00;99.90;;;;;;4989843;28;20521;-71
2022/09/13 03:51:32;;;;;;;0.05;0.05;;;18.00;99.90;;;;;;4992299;28;20050;-71
2022/09/13 03:54:02;;;;;;;0.00;0.00;;;18.00;99.90;;;;;;4992435;28;20039;-71
2022/09/13 03:56:28;;;;;;;0.00;0.00;;;18.00;99.90;;;;;;4989401;28;20050;-71
2022/09/13 03:58:54;;;;;;;0.00;0.00;;;17.90;99.90;;;;;;4990920;28;20137;-71
2022/09/13 04:01:23;;;;;;;2.28;0.50;;;17.90;99.90;;;;;;4989402;28;20498;-72
2022/09/13 04:03:49;;;;;;;0.00;0.00;;;17.90;99.90;;;;;;4991044;28;20101;-71
2022/09/13 04:06:14;;;;;;;0.00;0.00;;;17.90;99.90;;;;;;4990020;28;20053;-71
2022/09/13 04:08:41;;;;;;;0.00;0.00;;;17.90;99.90;;;;;;4991819;28;20042;-71
2022/09/13 04:11:08;;;;;;;0.00;0.00;;;17.90;99.90;;;;;;4989248;28;20054;-71
2022/09/13 04:13:35;;;;;;;0.00;0.00;;;17.90;99.90;;;;;;4992225;28;20057;-72
2022/09/13 04:16:02;;;;;;;0.00;0.00;;;18.00;99.90;;;;;;4990305;28;20049;-70
2022/09/13 04:18:29;;;;;;;0.00;0.00;;;17.90;99.90;;;;;;4991438;28;20041;-71
2022/09/13 04:20:56;;;;;;;0.00;0.00;;;17.90;99.90;;;;;;4991409;28;20096;-71
2022/09/13 04:23:23;;;;;;;0.00;0.00;;;18.00;99.90;;;;;;4989430;28;20479;-71
2022/09/13 04:25:52;;;;;;;0.00;0.00;;;17.90;99.90;;;;;;4989534;28;20038;-71
2022/09/13 04:28:19;;;;;;;0.00;0.00;;;17.90;99.90;;;;;;4990645;28;20406;-71
2022/09/13 04:30:48;;;;;;;0.00;0.00;;;17.90;99.90;;;;;;4998453;28;20052;-71
2022/09/13 04:33:16;;;;;;;0.00;0.00;;;17.90;99.90;;;;;;4997001;28;20057;-71
2022/09/13 04:35:41;;;;;;;0.00;0.00;;;18.00;99.90;;;;;;4991457;28;20042;-72
2022/09/13 04:38:07;;;;;;;0.00;0.00;;;17.90;99.90;;;;;;4988724;28;20038;-71
2022/09/13 04:40:33;;;;;;;0.00;0.00;;;17.90;99.90;;;;;;4999846;28;20073;-71
2022/09/13 04:43:00;;;;;;;0.03;0.03;;;17.90;99.90;;;;;;5010497;28;20073;-71
2022/09/13 04:45:26;;;;;;;0.45;0.45;;;17.90;99.90;;;;;;5007323;28;20141;-71
2022/09/13 04:47:55;;;;;;;0.00;0.00;;;17.80;99.90;;;;;;5010513;28;20550;-71
2022/09/13 04:50:21;;;;;;;0.08;0.08;;;17.80;99.90;;;;;;5007904;28;20037;-71
2022/09/13 04:52:47;;;;;;;0.10;0.10;;;17.80;99.90;;;;;;5009587;28;20132;-71
2022/09/13 04:55:13;;;;;;;0.00;0.00;;;17.80;99.90;;;;;;5010142;28;20120;-71
2022/09/13 04:57:40;;;;;;;0.00;0.00;;;17.80;99.90;;;;;;4991705;28;20046;-71
2022/09/13 05:00:06;;;;;;;0.00;0.00;;;17.80;99.90;;;;;;4988534;28;20473;-71
2022/09/13 05:02:32;;;;;;;0.00;0.00;;;17.80;99.90;;;;;;4990749;28;20050;-71
2022/09/13 05:04:57;;;;;;;0.10;0.10;;;17.80;99.90;;;;;;5004210;28;20092;-71
2022/09/13 05:07:23;;;;;;;0.00;0.00;;;17.80;99.90;;;;;;5005616;28;20145;-71
2022/09/13 05:09:49;;;;;;;0.00;0.00;;;17.80;99.90;;;;;;5009039;28;20049;-71
2022/09/13 05:12:14;;;;;;;0.00;0.00;;;17.80;99.90;;;;;;5011765;28;20394;-71
2022/09/13 05:14:40;;;;;;;0.00;0.00;;;17.80;99.90;;;;;;5008555;28;20497;-71
2022/09/13 05:17:06;;;;;;;0.00;0.00;;;17.80;99.90;;;;;;5008603;28;20132;-71
2022/09/13 05:19:31;;;;;;;0.03;0.03;;;17.80;99.90;;;;;;5014007;28;20049;-71
2022/09/13 05:21:57;;;;;;;0.00;0.00;;;17.80;99.90;;;;;;5013287;28;20053;-71
2022/09/13 05:24:23;;;;;;;0.08;0.08;;;17.80;99.90;;;;;;5013713;28;20045;-71
2022/09/13 05:26:48;;;;;;;0.00;0.00;;;17.80;99.90;;;;;;5006282;28;20125;-71
2022/09/13 05:29:14;;;;;;;0.00;0.00;;;17.80;99.90;;;;;;4992598;28;20110;-71
2022/09/13 05:31:41;;;;;;;0.00;0.00;;;17.80;99.90;;;;;;4997486;28;20056;-72
2022/09/13 05:34:11;;;;;;;0.10;0.10;;;17.80;99.90;;;;;;5008317;28;20109;-71
2022/09/13 05:36:37;;;;;;;0.00;0.00;;;17.90;99.90;;;;;;4993977;28;20510;-71
2022/09/13 05:39:04;;;;;;;0.00;0.00;;;17.90;99.90;;;;;;4994165;28;20113;-72
2022/09/13 05:41:30;;;;;;;0.05;0.05;;;17.90;99.90;;;;;;4994538;28;20046;-71
2022/09/13 05:43:56;;;;;;;0.00;0.00;;;17.90;99.90;;;;;;4992838;28;20053;-71
2022/09/13 05:46:22;;;;;;;0.00;0.00;;;17.90;99.90;;;;;;4993480;28;20482;-72
2022/09/13 05:48:48;;;;;;;0.00;0.00;;;17.80;99.90;;;;;;4993332;28;20049;-72
2022/09/13 05:51:19;;;;;;;0.10;0.10;;;17.80;99.90;;;;;;5006445;28;20184;-72
2022/09/13 05:53:50;;;;;;;0.00;0.00;;;17.70;99.90;;;;;;5013343;28;20037;-72
2022/09/13 05:56:17;;;;;;;3.33;1.20;;;17.70;99.90;;;;;;5008520;28;20050;-71
2022/09/13 05:58:45;;;;;;;0.20;0.20;;;17.70;99.90;;;;;;5013230;28;20052;-72
2022/09/13 06:01:12;;;;;;;0.10;0.10;;;17.70;99.90;;;;;;5012582;28;20449;-71
2022/09/13 06:03:38;;;;;;;0.00;0.00;;;17.70;99.90;;;;;;4993788;28;20038;-71
2022/09/13 06:06:04;;;;;;;0.10;0.10;;;17.70;99.90;;;;;;4992128;28;20093;-72
2022/09/13 06:08:32;;;;;;;1.85;1.02;;;17.60;99.90;;;;;;4993758;28;20495;-72
2022/09/13 06:11:05;;;;;;;0.05;0.05;;;17.60;99.90;;;;;;4992973;28;20112;-71
2022/09/13 06:13:32;;;;;;;0.00;0.00;;;17.50;99.90;;;;;;4992522;28;20053;-71
2022/09/13 06:15:59;;;;;;;0.00;0.00;;;17.50;99.90;;;;;;4993676;28;20046;-71
2022/09/13 06:18:26;;;;;;;0.03;0.03;;;17.50;99.90;;;;;;4992419;28;20125;-71
2022/09/13 06:21:09;;;;;;;0.00;0.00;;;17.50;99.90;;;;;;4993686;28;20042;-71
2022/09/13 06:23:34;;;;;;;0.00;0.00;;;17.50;99.90;;;;;;4990274;28;20056;-71
2022/09/13 06:26:05;;;;;;;0.00;0.00;;;17.50;99.90;;;;;;4993285;28;20046;-71
2022/09/13 06:28:30;;;;;;;0.00;0.00;;;17.50;99.90;;;;;;4992195;28;20118;-71
2022/09/13 06:31:07;;;;;;;0.00;0.00;;;17.50;99.90;;;;;;4992626;28;20071;-71
2022/09/13 06:33:34;;;;;;;0.10;0.10;;;17.50;99.90;;;;;;5011716;28;20048;-71
2022/09/13 06:36:01;;;;;;;1.52;0.40;;;17.40;99.90;;;;;;5013253;28;20061;-72
2022/09/13 06:38:27;;;;;;;0.08;0.08;;;17.40;99.90;;;;;;5002326;28;20490;-72
2022/09/13 06:41:13;;;;;;;0.00;0.00;;;17.50;99.90;;;;;;4995367;28;20046;-72
2022/09/13 06:43:40;;;;;;;0.00;0.00;;;17.50;99.90;;;;;;4992030;28;20054;-71
2022/09/13 06:46:09;;;;;;;0.10;0.10;;;17.50;99.90;;;;;;4992120;28;20049;-71
2022/09/13 06:48:37;;;;;;;0.00;0.00;;;17.50;99.90;;;;;;5010192;28;20046;-71
2022/09/13 06:51:06;;;;;;;0.10;0.10;;;17.50;99.90;;;;;;5012545;28;20050;-72
2022/09/13 06:53:33;;;;;;;19.17;0.80;;;17.50;99.90;;;;;;5009781;28;20499;-71
2022/09/13 06:56:01;;;;;;;0.00;0.00;;;17.50;99.90;;;;;;5007295;28;20072;-71
2022/09/13 06:58:28;;;;;;;0.10;0.10;;;17.50;99.90;;;;;;4990446;28;20144;-71
2022/09/13 07:01:03;;;;;;;0.00;0.00;;;17.50;99.90;;;;;;4992681;28;20054;-72
2022/09/13 07:03:29;;;;;;;0.00;0.00;;;17.50;99.90;;;;;;4998160;28;20096;-72
2022/09/13 07:05:54;;;;;;;0.00;0.00;;;17.60;99.90;;;;;;5011819;28;20041;-71
2022/09/13 07:08:20;;;;;;;0.00;0.00;;;17.60;99.90;;;;;;5010968;28;20045;-71
2022/09/13 07:10:45;;;;;;;0.38;0.38;;;17.60;99.90;;;;;;5012347;28;20140;-71
2022/09/13 07:13:11;;;;;;;0.15;0.15;;;17.60;99.90;;;;;;5009268;28;20046;-71
2022/09/13 07:15:36;;;;;;;0.00;0.00;;;17.60;99.90;;;;;;5011884;28;20136;-71
2022/09/13 07:18:02;;;;;;;0.03;0.03;;;17.70;99.90;;;;;;5012032;28;20140;-71
2022/09/13 07:20:27;;;;;;;0.10;0.10;;;17.70;99.90;;;;;;5011300;28;20073;-71
2022/09/13 07:22:53;;;;;;;0.00;0.00;;;17.80;99.90;;;;;;4999842;28;20046;-71
2022/09/13 07:25:18;;;;;;;0.00;0.00;;;17.80;99.90;;;;;;4991761;28;20050;-71
2022/09/13 07:27:44;;;;;;;1.05;1.05;;;17.80;99.90;;;;;;4991631;28;20061;-72
2022/09/13 07:30:10;;;;;;;0.00;0.00;;;17.90;99.90;;;;;;4995227;28;20045;-71
2022/09/13 07:32:35;;;;;;;0.10;0.10;;;17.90;99.90;;;;;;5002932;28;20410;-71
2022/09/13 07:35:01;;;;;;;0.20;0.20;;;18.00;99.90;;;;;;4988142;28;20482;-71
2022/09/13 07:37:27;;;;;;;0.00;0.00;;;18.10;99.90;;;;;;4991824;28;20057;-72
2022/09/13 07:39:52;;;;;;;0.00;0.00;;;18.10;99.90;;;;;;5007208;28;20130;-72
2022/09/13 07:42:18;;;;;;;0.00;0.00;;;18.00;99.90;;;;;;4990751;28;20131;-72
2022/09/13 07:44:43;;;;;;;0.00;0.00;;;18.10;99.90;;;;;;4995501;28;20038;-72
2022/09/13 07:47:09;;;;;;;0.00;0.00;;;18.00;99.90;;;;;;5010653;28;20061;-72
2022/09/13 07:49:34;;;;;;;0.30;0.30;;;18.00;99.90;;;;;;5010712;28;20042;-72
2022/09/13 07:52:00;;;;;;;0.00;0.00;;;18.10;99.90;;;;;;5011352;28;20045;-72
2022/09/13 07:54:26;;;;;;;0.00;0.00;;;18.00;99.90;;;;;;4998872;28;20050;-72
2022/09/13 07:56:51;;;;;;;0.00;0.00;;;18.00;99.90;;;;;;4990871;28;20045;-72
2022/09/13 07:59:18;;;;;;;0.00;0.00;;;18.00;99.90;;;;;;4991156;28;20050;-72
2022/09/13 08:01:48;;;;;;;0.00;0.00;;;18.00;99.90;;;;;;4990607;28;20069;-72
2022/09/13 08:04:17;;;;;;;1.17;0.65;;;18.00;99.90;;;;;;4990217;28;20038;-72
2022/09/13 08:06:43;;;;;;;0.28;0.28;;;18.00;99.90;;;;;;4990206;28;20042;-72
2022/09/13 08:09:09;;;;;;;0.00;0.00;;;18.00;99.90;;;;;;4989326;28;20371;-72
2022/09/13 08:11:40;;;;;;;0.00;0.00;;;18.10;99.90;;;;;;4990492;28;20034;-72
2022/09/13 08:14:08;;;;;;;0.00;0.00;;;18.10;99.90;;;;;;4990863;28;20046;-72
2022/09/13 08:16:34;;;;;;;0.00;0.00;;;18.10;99.90;;;;;;4990801;28;20072;-72
2022/09/13 08:19:02;;;;;;;0.00;0.00;;;18.10;99.90;;;;;;4990408;28;20125;-71
2022/09/13 08:21:39;;;;;;;0.00;0.00;;;18.10;99.90;;;;;;4990946;28;20070;-72
2022/09/13 08:24:07;;;;;;;0.20;0.10;;;18.20;99.90;;;;;;4990209;28;20396;-72
2022/09/13 08:26:35;;;;;;;0.10;0.10;;;18.20;99.90;;;;;;5003802;28;20048;-72
2022/09/13 08:29:03;;;;;;;0.00;0.00;;;18.30;99.90;;;;;;5009105;28;20049;-72
2022/09/13 08:31:29;;;;;;;0.65;0.65;;;18.30;99.90;;;;;;5009797;28;20042;-72
2022/09/13 08:33:56;;;;;;;0.00;0.00;;;18.30;99.90;;;;;;5009448;28;20048;-72
2022/09/13 08:36:23;;;;;;;0.00;0.00;;;18.30;99.90;;;;;;4990258;28;20042;-71
2022/09/13 08:38:51;;;;;;;0.00;0.00;;;18.40;99.90;;;;;;4995975;28;20061;-71
2022/09/13 08:41:31;;;;;;;0.00;0.00;;;18.40;99.90;;;;;;4998004;28;20465;-72
2022/09/13 08:44:03;;;;;;;0.00;0.00;;;18.50;99.90;;;;;;4989502;28;20799;-72
2022/09/13 08:46:34;;;;;;;0.00;0.00;;;18.50;99.90;;;;;;4992847;28;20077;-72
2022/09/13 08:49:10;;;;;;;0.20;0.20;;;19.00;99.90;;;;;;4993354;28;20042;-72
2022/09/13 08:51:47;;;;;;;0.00;0.00;;;19.40;99.90;;;;;;4993129;28;20139;-72
2022/09/13 08:54:15;;;;;;;0.45;0.45;;;20.00;99.90;;;;;;4994765;28;20046;-72
2022/09/13 08:57:02;;;;;;;0.98;0.90;;;20.70;99.90;;;;;;5007119;28;20042;-72
2022/09/13 08:59:46;;;;;;;0.00;0.00;;;21.10;99.90;;;;;;5013525;28;20649;-72
2022/09/13 09:02:19;;;;;;;0.13;0.13;;;20.90;99.90;;;;;;5009484;28;20066;-71
2022/09/13 09:04:53;;;;;;;0.65;0.65;;;21.70;99.90;;;;;;4994751;28;20078;-71
2022/09/13 09:07:26;;;;;;;0.00;0.00;;;22.00;99.90;;;;;;4999948;28;20058;-72
2022/09/13 09:10:01;;;;;;;0.00;0.00;;;21.80;99.90;;;;;;4999264;28;20337;-71
2022/09/13 09:12:46;;;;;;;0.00;0.00;;;22.40;99.90;;;;;;4992512;28;20598;-71
2022/09/13 09:15:26;;;;;;;0.10;0.10;;;22.80;99.90;;;;;;4993849;28;20053;-71
2022/09/13 09:18:03;;;;;;;0.00;0.00;;;22.70;99.90;;;;;;4993609;28;20050;-72
2022/09/13 09:20:49;;;;;;;0.05;0.05;;;22.40;99.90;;;;;;4993714;28;20406;-71
2022/09/13 09:23:23;;;;;;;0.00;0.00;;;21.70;99.90;;;;;;4995007;28;20050;-73
2022/09/13 09:26:07;;;;;;;0.10;0.10;;;21.10;99.90;;;;;;5013606;28;20402;-72
2022/09/13 09:28:34;;;;;;;4.85;0.70;;;20.70;99.90;;;;;;5012863;28;20057;-72
2022/09/13 09:31:07;;;;;;;0.00;0.00;;;20.70;99.90;;;;;;5013871;28;20057;-72
2022/09/13 09:33:55;;;;;;;0.65;0.65;;;21.20;99.90;;;;;;5010876;28;20049;-71
2022/09/13 09:36:45;;;;;;;0.00;0.00;;;21.80;99.90;;;;;;5013109;28;20084;-71
2022/09/13 09:39:14;;;;;;;0.20;0.10;;;22.60;99.90;;;;;;5010787;28;20041;-71
2022/09/13 09:41:41;;;;;;;0.00;0.00;;;23.00;99.90;;;;;;5000434;28;20057;-72
2022/09/13 09:44:21;;;;;;;0.00;0.00;;;22.80;99.90;;;;;;4992472;28;20525;-73
2022/09/13 09:46:50;;;;;;;0.00;0.00;;;22.10;99.90;;;;;;4992815;28;20055;-72
2022/09/13 09:52:27;;;;;;;0.28;0.17;;;23.00;99.90;;;;;;4993646;28;20239;-72
2022/09/13 09:55:02;;;;;;;0.00;0.00;;;23.50;99.90;;;;;;4998719;28;20049;-72
2022/09/13 09:57:48;;;;;;;0.00;0.00;;;23.40;99.90;;;;;;5012826;28;20041;-73
2022/09/13 10:00:14;;;;;;;0.00;0.00;;;22.80;99.90;;;;;;5003994;28;20046;-73
2022/09/13 10:02:44;;;;;;;0.00;0.00;;;22.20;99.90;;;;;;4992839;28;20050;-73
2022/09/13 10:05:13;;;;;;;0.10;0.10;;;22.10;99.90;;;;;;4993270;28;20144;-72
2022/09/13 10:07:39;;;;;;;0.00;0.00;;;22.50;99.90;;;;;;5004033;28;20401;-73
2022/09/13 10:10:19;;;;;;;0.00;0.00;;;22.90;99.90;;;;;;5012389;28;20412;-72
2022/09/13 10:12:50;;;;;;;1.13;0.40;;;23.30;99.90;;;;;;5001215;28;20124;-73
2022/09/13 10:15:19;;;;;;;0.00;0.00;;;22.60;99.90;;;;;;4993237;28;20054;-73
2022/09/13 10:18:24;;;;;;;0.00;0.00;;;22.20;99.90;;;;;;4990813;28;20046;-72
2022/09/13 10:21:04;;;;;;;0.00;0.00;;;22.20;99.90;;;;;;4971242;28;20149;-73
2022/09/13 10:23:32;;;;;;;1.25;0.28;;;22.00;99.90;;;;;;4991021;28;20062;-73
2022/09/13 10:26:03;;;;;;;0.22;0.22;;;21.90;99.90;;;;;;5007731;28;20046;-72
2022/09/13 10:28:35;;;;;;;0.00;0.00;;;22.20;99.90;;;;;;5012514;28;20092;-72
2022/09/13 10:31:08;;;;;;;0.00;0.00;;;22.40;99.90;;;;;;5010573;28;20092;-73
2022/09/13 10:33:43;;;;;;;1.25;0.63;;;22.20;99.90;;;;;;5010551;28;20045;-73
2022/09/13 10:36:23;;;;;;;0.35;0.25;;;21.90;99.90;;;;;;5004804;28;20042;-73
2022/09/13 10:39:02;;;;;;;0.10;0.10;;;22.10;99.90;;;;;;5012014;28;20054;-73
2022/09/13 10:41:32;;;;;;;0.28;0.28;;;22.50;99.90;;;;;;5010132;28;20038;-72
2022/09/13 10:44:00;;;;;;;0.00;0.00;;;22.70;99.90;;;;;;5010546;28;20050;-74
2022/09/13 10:46:31;;;;;;;0.65;0.57;;;22.40;99.90;;;;;;5012411;28;20050;-73
2022/09/13 10:48:56;;;;;;;0.00;0.00;;;22.00;99.90;;;;;;5004893;28;20046;-73
2022/09/13 10:51:25;;;;;;;0.00;0.00;;;22.20;99.90;;;;;;4988937;28;20088;-72
2022/09/13 10:54:19;;;;;;;0.00;0.00;;;22.50;99.90;;;;;;4992455;28;20100;-73
2022/09/13 10:56:46;;;;;;;0.00;0.00;;;22.80;99.90;;;;;;4992992;28;20050;-73
2022/09/13 10:59:20;;;;;;;0.47;0.35;;;23.00;99.90;;;;;;4990344;28;20475;-73
2022/09/13 11:01:54;;;;;;;0.00;0.00;;;23.20;99.90;;;;;;5003224;28;20058;-73
2022/09/13 11:05:05;;;;;;;0.00;0.00;;;23.50;99.90;;;;;;5011495;28;20053;-73
2022/09/13 11:07:49;;;;;;;0.00;0.00;;;23.00;99.90;;;;;;4996776;28;20057;-73
2022/09/13 11:10:51;;;;;;;0.00;0.00;;;22.80;99.90;;;;;;4992432;28;20093;-73
2022/09/13 11:13:19;;;;;;;0.10;0.10;;;22.50;99.90;;;;;;4991020;28;20494;-73
2022/09/13 11:16:15;;;;;;;21.73;1.10;;;22.60;99.90;;;;;;5006540;28;20038;-74
2022/09/13 11:18:50;;;;;;;0.00;0.00;;;22.90;99.90;;;;;;5010301;28;20141;-73
2022/09/13 11:21:51;;;;;;;0.00;0.00;;;23.40;99.90;;;;;;5011253;28;20437;-73
2022/09/13 11:24:26;;;;;;;0.25;0.25;;;23.50;99.90;;;;;;4993714;28;20405;-73
2022/09/13 11:26:56;;;;;;;0.00;0.00;;;23.70;99.90;;;;;;4991677;28;20062;-74
2022/09/13 11:29:44;;;;;;;0.00;0.00;;;23.80;99.90;;;;;;4991783;28;20145;-74
2022/09/13 11:32:47;;;;;;;0.00;0.00;;;23.70;99.90;;;;;;4992022;28;20379;-73
2022/09/13 11:35:40;;;;;;;0.25;0.25;;;23.60;99.90;;;;;;4990493;28;20513;-74
2022/09/13 11:38:30;;;;;;;0.08;0.08;;;23.20;99.90;;;;;;4991423;28;20576;-74
2022/09/13 11:41:04;;;;;;;0.00;0.00;;;23.70;99.90;;;;;;4995952;28;20093;-74
2022/09/13 11:43:58;;;;;;;0.00;0.00;;;23.50;99.90;;;;;;4991930;28;20453;-74
2022/09/13 11:46:32;;;;;;;0.00;0.00;;;22.80;99.90;;;;;;4991779;28;20053;-74
2022/09/13 11:49:25;;;;;;;0.00;0.00;;;22.50;99.90;;;;;;4988652;28;20049;-73
2022/09/13 11:52:08;;;;;;;0.10;0.10;;;22.20;99.90;;;;;;4991649;28;20050;-74
2022/09/13 11:54:55;;;;;;;0.00;0.00;;;22.60;99.90;;;;;;4991219;28;20042;-74
2022/09/13 11:57:28;;;;;;;0.00;0.00;;;23.00;99.90;;;;;;4989805;28;20427;-74
2022/09/13 12:00:03;;;;;;;0.00;0.00;;;23.30;99.90;;;;;;4991984;28;20060;-74
2022/09/13 12:02:39;;;;;;;0.00;0.00;;;23.10;99.90;;;;;;5007105;28;20139;-74
2022/09/13 12:05:14;;;;;;;0.00;0.00;;;23.30;99.90;;;;;;5009043;28;20668;-74
2022/09/13 12:07:46;;;;;;;0.00;0.00;;;22.80;99.90;;;;;;5010713;28;20524;-74
2022/09/13 12:10:16;;;;;;;0.00;0.00;;;23.30;99.90;;;;;;5006308;28;20132;-73
2022/09/13 12:12:48;;;;;;;0.00;0.00;;;23.60;99.90;;;;;;5010802;28;20038;-74
2022/09/13 12:15:18;;;;;;;0.00;0.00;;;23.80;99.90;;;;;;5010127;28;20058;-74
2022/09/13 12:17:50;;;;;;;0.35;0.35;;;23.80;99.90;;;;;;5006859;28;20128;-74
2022/09/13 12:20:18;;;;;;;7.97;0.25;;;24.00;99.90;;;;;;5009817;28;20518;-74
2022/09/13 12:22:45;;;;;;;0.00;0.00;;;23.30;99.90;;;;;;5003323;28;20367;-73
2022/09/13 12:25:22;;;;;;;0.00;0.00;;;23.30;99.90;;;;;;4990864;28;20363;-73
2022/09/13 12:27:58;;;;;;;8.10;0.85;;;23.40;99.90;;;;;;4991140;28;20046;-73
2022/09/13 12:30:36;;;;;;;0.20;0.20;;;23.50;99.90;;;;;;4989060;28;20121;-73
2022/09/13 12:33:04;;;;;;;1.00;0.90;;;23.30;99.90;;;;;;4995575;28;20398;-73
2022/09/13 12:35:37;;;;;;;0.20;0.20;;;23.00;99.90;;;;;;4989946;28;20050;-73
2022/09/13 12:38:21;;;;;;;0.00;0.00;;;23.10;99.90;;;;;;4989852;28;20042;-74
2022/09/13 12:41:18;;;;;;;0.00;0.00;;;23.20;99.90;;;;;;5002268;28;20049;-74
2022/09/13 12:44:10;;;;;;;0.03;0.00;;;23.40;99.90;;;;;;5007978;28;20057;-73
2022/09/13 12:47:20;;;;;;;0.00;0.00;;;23.10;99.90;;;;;;4996463;28;20080;-73
2022/09/13 12:49:54;;;;;;;0.52;0.52;;;23.40;99.90;;;;;;5010949;28;20077;-73
2022/09/13 12:52:31;;;;;;;0.00;0.00;;;23.00;99.90;;;;;;5005879;28;20385;-73
2022/09/13 12:55:35;;;;;;;0.00;0.00;;;22.60;99.90;;;;;;5010437;28;20145;-73
2022/09/13 12:58:15;;;;;;;1.35;0.47;;;23.10;99.90;;;;;;4998370;28;20069;-73
2022/09/13 13:00:56;;;;;;;0.00;0.00;;;23.30;99.90;;;;;;5009289;28;20135;-73
2022/09/13 13:03:28;;;;;;;0.00;0.00;;;23.80;99.90;;;;;;5009186;28;20086;-73
2022/09/13 13:06:14;;;;;;;0.80;0.55;;;24.10;99.90;;;;;;5010106;28;20042;-73
2022/09/13 13:08:47;;;;;;;8.23;0.80;;;24.50;99.90;;;;;;5006646;28;20057;-73
2022/09/13 13:11:13;;;;;;;0.00;0.00;;;24.10;99.90;;;;;;5007908;28;20042;-73
2022/09/13 13:13:45;;;;;;;0.10;0.10;;;23.70;99.90;;;;;;4989874;28;20050;-73
2022/09/13 13:16:30;;;;;;;0.03;0.03;;;23.80;99.90;;;;;;4989064;28;20129;-73
2022/09/13 13:19:30;;;;;;;0.00;0.00;;;24.00;99.90;;;;;;4988965;28;20061;-73
2022/09/13 13:22:16;;;;;;;0.00;0.00;;;24.20;99.40;;;;;;4989422;28;20078;-73